Time;durP1;ratioP1;P1;durP2;ratioP2;P2;SDS_P1;SDS_P2;PMS_P1;PMS_P2;Temp;Humidity;BMP_temperature;BMP_pressure;BME280_temperature;BME280_humidity;BME280_pressure;Samples;Min_cycle;Max_cycle;Signal;HPM_P1;HPM_P2
2022/08/08 00:00:01;;;;;;;;;;;20.90;33.40;;;18.89;35.29;101953.28;12262207;19;19914;-92
2022/08/08 00:04:14;;;;;;;;;;;20.80;33.50;;;18.79;35.73;101950.41;12253208;19;19910;-92
2022/08/08 00:08:50;;;;;;;;;;;20.70;33.50;;;18.81;35.67;101950.31;12256477;19;19915;-93
2022/08/08 00:13:08;;;;;;;;;;;20.70;33.90;;;18.40;35.37;101888.72;12255691;19;19928;-93
2022/08/08 00:17:51;;;;;;;;;;;20.70;33.60;;;18.62;35.64;101948.09;12254820;19;20272;-93
2022/08/08 00:22:14;;;;;;;;;;;20.60;33.70;;;18.50;35.59;101926.81;12250002;19;19915;-93
2022/08/08 00:26:26;;;;;;;;;;;20.50;33.70;;;17.94;35.52;101846.97;12253775;19;20023;-93
2022/08/08 00:30:44;;;;;;;;;;;20.40;33.60;;;17.98;35.68;101868.72;12249177;19;19918;-93
2022/08/08 00:35:09;;;;;;;;;;;20.40;33.60;;;18.35;35.60;101943.75;12256620;19;19911;-92
2022/08/08 00:39:14;;;;;;;;;;;20.30;33.70;;;17.76;35.68;101866.66;12254062;19;19925;-92
2022/08/08 00:43:23;;;;;;;;;;;20.30;33.70;;;18.25;35.79;101953.25;12252361;19;19940;-92
2022/08/08 00:48:09;;;;;;;;;;;20.20;33.80;;;18.20;36.00;101955.34;12248011;19;20354;-93
2022/08/08 00:52:36;;;;;;;;;;;20.20;33.80;;;18.07;35.76;101937.69;12245448;19;19986;-93
2022/08/08 00:57:15;;;;;;;;;;;20.10;33.90;;;18.10;35.80;101949.88;12253431;19;20333;-93
2022/08/08 01:01:34;;;;;;;;;;;20.00;33.90;;;18.08;35.87;101952.59;12264475;19;20250;-92
2022/08/08 01:06:05;;;;;;;;;;;20.00;34.00;;;18.05;35.80;101942.22;12257589;19;19959;-93
2022/08/08 01:10:32;;;;;;;;;;;20.00;34.00;;;18.02;36.13;101953.03;12254712;19;20001;-93
2022/08/08 01:14:54;;;;;;;;;;;19.90;34.00;;;17.94;36.15;101939.47;12253436;19;19923;-93
2022/08/08 01:19:36;;;;;;;;;;;19.90;34.00;;;17.63;36.11;101915.06;12251629;19;19910;-93
2022/08/08 01:24:02;;;;;;;;;;;19.80;34.00;;;17.75;36.06;101953.03;12250306;19;20285;-93
2022/08/08 01:28:26;;;;;;;;;;;19.70;34.00;;;17.59;36.24;101954.97;12252789;19;20399;-93
2022/08/08 01:32:43;;;;;;;;;;;19.70;34.00;;;17.46;36.41;101949.63;12246252;19;19952;-93
2022/08/08 01:37:29;;;;;;;;;;;19.60;34.10;;;17.25;36.20;101933.38;12259148;19;19911;-93
2022/08/08 01:42:00;;;;;;;;;;;19.50;34.00;;;17.21;36.35;101945.94;12257327;19;19987;-93
2022/08/08 01:46:28;;;;;;;;;;;19.30;34.00;;;17.12;36.46;101943.00;12260451;19;19967;-93
2022/08/08 01:50:51;;;;;;;;;;;19.20;34.20;;;17.09;36.64;101944.06;12257679;19;20317;-92
2022/08/08 01:55:21;;;;;;;;;;;19.10;34.20;;;16.62;36.66;101870.50;12257504;19;20239;-93
2022/08/08 01:59:51;;;;;;;;;;;19.00;34.30;;;16.89;36.52;101916.28;12253688;19;19926;-92
2022/08/08 02:04:15;;;;;;;;;;;19.00;34.40;;;17.05;36.74;101939.94;12256496;19;19974;-93
2022/08/08 02:08:50;;;;;;;;;;;19.00;34.40;;;16.93;36.54;101933.66;12258149;19;19922;-93
2022/08/08 02:13:02;;;;;;;;;;;19.00;34.50;;;16.94;36.60;101940.59;12250176;19;19939;-93
2022/08/08 02:17:46;;;;;;;;;;;18.90;34.40;;;16.77;36.35;101923.19;12256735;19;19911;-93
2022/08/08 02:22:32;;;;;;;;;;;18.90;34.40;;;16.73;36.48;101940.09;12250253;19;19986;-93
2022/08/08 02:26:50;;;;;;;;;;;18.80;34.30;;;16.50;36.73;101930.97;12254909;19;19926;-93
2022/08/08 02:31:19;;;;;;;;;;;18.70;34.40;;;16.26;36.76;101914.84;12249135;19;19981;-92
2022/08/08 02:35:36;;;;;;;;;;;18.60;34.40;;;16.26;37.08;101932.47;12255395;19;20013;-92
2022/08/08 02:39:51;;;;;;;;;;;18.50;34.50;;;16.33;37.04;101945.16;12248811;19;19922;-93
2022/08/08 02:44:14;;;;;;;;;;;18.40;34.60;;;16.33;37.08;101942.53;12257002;19;19913;-93
2022/08/08 02:48:38;;;;;;;;;;;18.40;34.70;;;16.30;37.10;101947.16;12257934;19;19921;-93
2022/08/08 02:52:55;;;;;;;;;;;18.30;34.70;;;16.21;37.07;101948.53;12260375;19;19935;-93
2022/08/08 02:57:11;;;;;;;;;;;18.30;34.70;;;15.56;36.98;101853.13;12262036;19;20293;-93
2022/08/08 03:01:18;;;;;;;;;;;18.20;34.60;;;15.97;37.14;101942.09;12257547;19;19926;-92
2022/08/08 03:05:51;;;;;;;;;;;18.10;34.60;;;15.40;37.11;101877.72;12254847;19;19918;-93
2022/08/08 03:10:02;;;;;;;;;;;18.00;34.70;;;15.35;37.58;101892.91;12250735;19;19919;-93
2022/08/08 03:14:07;;;;;;;;;;;18.20;35.00;;;15.66;37.41;101956.97;12252775;19;20241;-93
2022/08/08 03:18:16;;;;;;;;;;;18.00;34.90;;;15.63;37.31;101963.25;12252900;19;20338;-92
2022/08/08 03:22:18;;;;;;;;;;;17.70;34.90;;;15.59;37.35;101961.75;12245358;19;20259;-94
2022/08/08 03:26:27;;;;;;;;;;;17.70;35.00;;;15.57;37.59;101963.63;12250521;19;19982;-92
2022/08/08 03:30:29;;;;;;;;;;;17.70;35.10;;;14.96;37.57;101873.16;12247294;19;19910;-93
2022/08/08 03:34:32;;;;;;;;;;;17.70;35.20;;;15.19;37.51;101921.88;12251522;19;19979;-93
2022/08/08 03:38:34;;;;;;;;;;;17.80;35.20;;;15.44;37.75;101971.34;12249939;19;19918;-93
2022/08/08 03:42:37;;;;;;;;;;;17.50;35.20;;;14.74;37.60;101856.84;12246092;19;20325;-93
2022/08/08 03:46:46;;;;;;;;;;;17.70;35.40;;;15.29;37.51;101955.59;12249025;19;20538;-93
2022/08/08 03:50:49;;;;;;;;;;;17.40;35.20;;;15.24;37.74;101958.47;12245535;19;20346;-93
2022/08/08 03:54:54;;;;;;;;;;;17.40;35.30;;;15.24;37.63;101963.72;12275265;19;19953;-91
2022/08/08 03:59:16;;;;;;;;;;;17.30;35.30;;;14.87;37.88;101918.34;12272725;19;20237;-92
2022/08/08 04:03:19;;;;;;;;;;;17.30;35.20;;;15.16;37.99;101974.66;12277576;19;20238;-92
2022/08/08 04:07:23;;;;;;;;;;;17.30;35.30;;;15.10;37.94;101966.25;12277708;19;19911;-91
2022/08/08 04:11:25;;;;;;;;;;;17.20;35.40;;;14.85;38.00;101930.72;12264117;19;19918;-92
2022/08/08 04:15:27;;;;;;;;;;;17.20;35.50;;;14.63;38.20;101885.50;12254288;19;19915;-93
2022/08/08 04:19:29;;;;;;;;;;;17.30;36.00;;;14.97;38.06;101948.50;12263157;19;19932;-93
2022/08/08 04:23:36;;;;;;;;;;;17.20;35.70;;;15.05;38.07;101966.50;12276273;19;19928;-92
2022/08/08 04:27:40;;;;;;;;;;;17.20;35.70;;;14.97;37.94;101948.50;12270423;19;19923;-93
2022/08/08 04:31:42;;;;;;;;;;;17.20;35.80;;;14.83;38.19;101925.56;12250487;19;19937;-93
2022/08/08 04:35:44;;;;;;;;;;;17.30;35.80;;;14.99;38.14;101930.03;12251804;19;19922;-93
2022/08/08 04:39:46;;;;;;;;;;;17.70;35.90;;;15.21;38.02;101977.06;12243974;19;19919;-93
2022/08/08 04:43:48;;;;;;;;;;;17.30;35.80;;;15.21;38.14;101974.41;12249177;19;20326;-93
2022/08/08 04:47:58;;;;;;;;;;;17.40;35.90;;;14.85;38.41;101920.22;12247747;19;19923;-93
2022/08/08 04:52:00;;;;;;;;;;;17.30;35.90;;;14.88;38.24;101922.72;12245789;19;19931;-93
2022/08/08 04:56:02;;;;;;;;;;;17.40;36.00;;;14.91;38.34;101914.66;12247343;19;19938;-93
2022/08/08 05:00:08;;;;;;;;;;;17.40;36.00;;;15.28;38.53;101973.13;12245380;19;20294;-93
2022/08/08 05:04:10;;;;;;;;;;;17.50;36.10;;;15.00;38.35;101927.28;12250523;19;20646;-92
2022/08/08 05:08:16;;;;;;;;;;;17.50;36.20;;;14.92;38.25;101907.59;12246584;19;19923;-93
2022/08/08 05:12:20;;;;;;;;;;;17.50;36.10;;;15.22;38.54;101953.25;12238781;19;19927;-93
2022/08/08 05:16:21;;;;;;;;;;;17.80;36.20;;;15.17;38.55;101942.13;12246394;19;19936;-93
2022/08/08 05:20:23;;;;;;;;;;;17.60;36.20;;;15.45;38.68;101982.75;12244516;19;19958;-93
2022/08/08 05:24:25;;;;;;;;;;;17.80;36.20;;;15.01;38.48;101901.81;12246780;19;19907;-91
2022/08/08 05:28:28;;;;;;;;;;;17.80;36.30;;;15.65;38.68;101995.63;12245074;19;19926;-92
2022/08/08 05:32:30;;;;;;;;;;;17.70;36.30;;;15.22;38.65;101924.31;12236031;19;20305;-93
2022/08/08 05:36:34;;;;;;;;;;;17.90;36.30;;;15.22;38.91;101923.47;12246668;19;19968;-92
2022/08/08 05:40:38;;;;;;;;;;;17.90;36.40;;;15.90;38.74;102021.50;12240688;19;20263;-92
2022/08/08 05:44:45;;;;;;;;;;;17.90;36.40;;;15.58;38.87;101953.94;12244317;19;19918;-92
2022/08/08 05:48:49;;;;;;;;;;;18.00;36.90;;;15.53;38.79;101927.00;12253663;19;19959;-93
2022/08/08 05:52:51;;;;;;;;;;;18.00;36.70;;;15.86;39.12;101964.63;12255448;19;19947;-91
2022/08/08 05:56:54;;;;;;;;;;;18.10;36.90;;;16.34;38.97;102002.25;12248659;19;19935;-91
2022/08/08 06:01:01;;;;;;;;;;;18.30;37.00;;;16.55;39.02;101984.31;12248352;19;19926;-91
2022/08/08 06:05:03;;;;;;;;;;;18.50;37.10;;;17.17;39.02;102028.88;12250827;19;19921;-91
2022/08/08 06:09:07;;;;;;;;;;;18.80;37.40;;;17.39;39.04;102016.97;12244120;19;19903;-91
2022/08/08 06:13:08;;;;;;;;;;;19.10;37.40;;;17.43;39.10;101977.09;12245728;19;19990;-91
2022/08/08 06:17:11;;;;;;;;;;;19.70;37.70;;;18.09;38.91;102011.59;12244546;19;19914;-90
2022/08/08 06:21:20;;;;;;;;;;;19.70;37.40;;;18.39;39.00;102006.06;12249582;19;19977;-91
2022/08/08 06:25:23;;;;;;;;;;;20.00;37.00;;;18.58;38.77;101998.56;12263512;19;19923;-91
2022/08/08 06:29:37;;;;;;;;;;;20.30;36.80;;;18.88;38.80;102023.91;12255802;19;19930;-92
2022/08/08 06:33:50;;;;;;;;;;;20.60;36.60;;;19.03;38.78;102019.31;12258687;19;20282;-92
2022/08/08 06:37:56;;;;;;;;;;;20.80;36.40;;;19.05;38.72;101993.59;12257639;19;19915;-91
2022/08/08 06:42:01;;;;;;;;;;;21.00;36.60;;;19.17;38.50;101990.09;12252483;19;19919;-91
2022/08/08 06:46:13;;;;;;;;;;;21.20;36.20;;;19.56;38.74;102021.75;12256218;19;19923;-91
2022/08/08 06:50:17;;;;;;;;;;;21.40;36.10;;;19.41;38.78;101976.00;12253939;19;19915;-90
2022/08/08 06:54:21;;;;;;;;;;;22.00;36.20;;;19.87;38.31;102041.59;12255387;19;19949;-89
2022/08/08 06:58:23;;;;;;;;;;;21.70;36.00;;;19.62;38.66;101965.66;12255086;19;20610;-90
2022/08/08 07:02:27;;;;;;;;;;;21.80;35.80;;;19.76;38.60;101964.66;12252664;19;19996;-89
2022/08/08 07:06:33;;;;;;;;;;;22.30;35.90;;;20.35;38.71;102044.19;12256434;19;20370;-88
2022/08/08 07:10:37;;;;;;;;;;;22.20;35.80;;;20.38;38.28;102025.38;12253717;19;19995;-89
2022/08/08 07:14:48;;;;;;;;;;;22.60;35.80;;;20.66;38.34;102048.06;12254396;19;19915;-89
2022/08/08 07:19:16;;;;;;;;;;;22.40;35.70;;;20.88;38.53;102049.88;12255397;19;20333;-89
2022/08/08 07:23:30;;;;;;;;;;;22.50;35.70;;;20.92;38.44;102030.06;12254619;19;19907;-89
2022/08/08 07:27:39;;;;;;;;;;;22.70;35.70;;;20.98;38.19;102010.16;12255169;19;19919;-89
2022/08/08 07:31:42;;;;;;;;;;;22.90;35.50;;;21.35;38.18;102037.31;12245639;19;19930;-89
2022/08/08 07:35:46;;;;;;;;;;;23.30;35.70;;;21.55;37.99;102034.88;12253909;19;20332;-88
2022/08/08 07:39:48;;;;;;;;;;;23.30;35.60;;;21.61;38.23;101995.38;12253054;19;19930;-89
2022/08/08 07:43:53;;;;;;;;;;;23.50;35.60;;;22.15;38.57;102052.13;12254764;19;19927;-89
2022/08/08 07:47:57;;;;;;;;;;;23.80;35.60;;;22.46;38.40;102050.41;12257403;19;19918;-89
2022/08/08 07:51:59;;;;;;;;;;;24.10;35.60;;;22.66;38.30;102035.41;12250547;19;20334;-88
2022/08/08 07:56:06;;;;;;;;;;;24.30;35.50;;;22.92;38.36;102038.47;12253295;19;19937;-88
2022/08/08 08:00:13;;;;;;;;;;;24.70;35.50;;;23.36;38.05;102065.75;12252260;19;19921;-88
2022/08/08 08:04:36;;;;;;;;;;;24.90;35.30;;;23.56;38.00;102055.13;12249056;19;20329;-88
2022/08/08 08:08:53;;;;;;;;;;;25.20;35.20;;;23.87;38.00;102065.75;12250739;19;19940;-88
2022/08/08 08:13:35;;;;;;;;;;;25.50;35.30;;;24.18;37.99;102069.97;12248023;19;20236;-88
2022/08/08 08:17:42;;;;;;;;;;;25.70;35.20;;;24.40;37.77;102063.50;12249364;19;19950;-88
2022/08/08 08:21:46;;;;;;;;;;;26.10;35.30;;;24.69;37.81;102065.31;12248194;19;19948;-88
2022/08/08 08:26:00;;;;;;;;;;;26.20;35.10;;;24.91;37.57;102056.09;12253262;19;19918;-88
2022/08/08 08:30:02;;;;;;;;;;;26.70;35.10;;;25.24;37.37;102072.59;12251525;19;19922;-88
2022/08/08 08:34:04;;;;;;;;;;;26.80;34.80;;;25.40;37.08;102056.75;12252004;19;20633;-88
2022/08/08 08:38:05;;;;;;;;;;;27.00;34.60;;;25.44;37.22;102042.09;12266368;19;19915;-88
2022/08/08 08:42:09;;;;;;;;;;;27.10;33.40;;;25.36;36.95;102004.56;12259327;19;20405;-88
2022/08/08 08:46:12;;;;;;;;;;;27.40;33.80;;;25.88;36.74;102073.50;12256844;19;19923;-88
2022/08/08 08:50:14;;;;;;;;;;;27.50;33.60;;;26.07;36.80;102077.88;12249353;19;19906;-88
2022/08/08 08:54:17;;;;;;;;;;;27.60;33.80;;;26.27;36.82;102088.28;12254666;19;20271;-89
2022/08/08 08:58:31;;;;;;;;;;;27.80;34.20;;;26.31;36.67;102051.31;12256027;19;19953;-87
2022/08/08 09:02:34;;;;;;;;;;;28.00;33.00;;;26.39;36.62;102051.38;12248839;19;20329;-88
2022/08/08 09:06:40;;;;;;;;;;;28.10;33.80;;;26.58;36.43;102062.91;12252447;19;19987;-88
2022/08/08 09:10:45;;;;;;;;;;;28.30;33.80;;;26.73;36.33;102045.22;12249652;19;19914;-88
2022/08/08 09:14:50;;;;;;;;;;;28.40;33.90;;;27.09;36.23;102059.34;12250441;19;20313;-87
2022/08/08 09:18:54;;;;;;;;;;;28.60;34.00;;;27.31;36.29;102066.00;12253799;19;19914;-88
2022/08/08 09:22:57;;;;;;;;;;;28.80;33.90;;;27.45;36.30;102056.47;12250552;19;19979;-88
2022/08/08 09:27:07;;;;;;;;;;;29.10;32.60;;;27.50;35.64;102059.53;12251438;19;19919;-88
2022/08/08 09:31:14;;;;;;;;;;;29.20;33.40;;;27.52;35.75;102037.91;12249947;19;19921;-87
2022/08/08 09:35:27;;;;;;;;;;;29.30;33.30;;;27.71;36.06;102053.69;12254686;19;19915;-87
2022/08/08 09:39:39;;;;;;;;;;;29.40;33.10;;;27.65;35.52;102032.88;12247950;19;19922;-87
2022/08/08 09:43:49;;;;;;;;;;;29.50;33.20;;;27.65;35.51;102019.44;12248803;19;19914;-88
2022/08/08 09:47:51;;;;;;;;;;;29.50;32.90;;;27.94;35.29;102048.53;12250506;19;19922;-87
2022/08/08 09:51:55;;;;;;;;;;;29.60;33.10;;;27.56;35.04;101978.34;12247786;19;19918;-88
2022/08/08 09:55:57;;;;;;;;;;;29.80;33.10;;;27.91;35.03;102032.78;12250347;19;19914;-88
2022/08/08 09:59:59;;;;;;;;;;;29.70;32.90;;;27.68;35.34;102005.72;12255824;19;19907;-88
2022/08/08 10:04:06;;;;;;;;;;;29.70;32.80;;;27.70;35.00;102014.41;12260062;19;20376;-88
2022/08/08 10:08:08;;;;;;;;;;;29.70;32.80;;;27.21;35.28;101963.34;12259590;19;20321;-89
2022/08/08 10:12:10;;;;;;;;;;;29.60;32.80;;;27.59;35.14;102033.53;12258768;19;20249;-88
2022/08/08 10:16:12;;;;;;;;;;;29.60;32.80;;;27.39;34.84;102008.84;12262498;19;19984;-90
2022/08/08 10:20:14;;;;;;;;;;;29.60;32.30;;;27.25;34.97;101991.53;12258747;19;19927;-88
2022/08/08 10:24:16;;;;;;;;;;;29.50;33.10;;;27.26;35.07;101984.34;12261632;19;20260;-88
2022/08/08 10:28:20;;;;;;;;;;;29.40;32.90;;;27.54;34.97;102011.72;12262038;19;20045;-88
2022/08/08 10:32:36;;;;;;;;;;;29.50;32.60;;;27.66;34.68;102017.63;12255786;19;19975;-87
2022/08/08 10:36:39;;;;;;;;;;;29.50;32.60;;;27.33;34.67;101953.19;12261365;19;19931;-88
2022/08/08 10:40:41;;;;;;;;;;;29.60;32.50;;;27.58;34.30;101997.81;12254229;19;19929;-88
2022/08/08 10:44:42;;;;;;;;;;;29.50;32.30;;;27.55;34.40;101983.91;12259010;19;19918;-88
2022/08/08 10:48:44;;;;;;;;;;;29.50;32.30;;;27.80;34.38;102012.47;12257401;19;19911;-88
2022/08/08 10:52:46;;;;;;;;;;;29.50;32.00;;;27.60;34.28;101962.78;12252584;19;19926;-89
2022/08/08 10:56:58;;;;;;;;;;;29.50;32.30;;;27.66;34.63;101962.09;12258245;19;19918;-87
2022/08/08 11:01:07;;;;;;;;;;;29.60;32.50;;;28.11;34.40;102011.81;12255491;19;19919;-87
2022/08/08 11:05:10;;;;;;;;;;;29.80;32.60;;;28.24;33.88;101990.59;12257810;19;19921;-89
2022/08/08 11:09:12;;;;;;;;;;;29.80;32.70;;;28.41;33.96;102012.94;12255459;19;19915;-88
2022/08/08 11:13:20;;;;;;;;;;;30.00;32.50;;;28.60;33.85;102010.91;12254327;19;19975;-90
2022/08/08 11:17:26;;;;;;;;;;;30.10;32.50;;;28.54;33.60;101984.72;12256777;19;19911;-88
2022/08/08 11:21:29;;;;;;;;;;;30.30;32.40;;;28.67;34.00;101977.75;12253365;19;19944;-89
2022/08/08 11:25:32;;;;;;;;;;;30.40;32.30;;;28.87;33.79;101994.34;12258240;19;19922;-89
2022/08/08 11:29:34;;;;;;;;;;;30.80;31.30;;;29.15;33.56;102019.97;12259217;19;20253;-86
2022/08/08 11:33:36;;;;;;;;;;;30.60;31.90;;;29.08;33.32;102001.84;12255336;19;19918;-89
2022/08/08 11:37:40;;;;;;;;;;;30.70;32.30;;;28.83;33.42;101968.81;12256269;19;19978;-87
2022/08/08 11:41:44;;;;;;;;;;;30.70;31.80;;;29.10;33.17;102013.25;12249597;19;20330;-88
2022/08/08 11:45:46;;;;;;;;;;;30.70;31.90;;;28.60;33.40;101936.47;12253659;19;19926;-87
2022/08/08 11:49:51;;;;;;;;;;;30.70;31.50;;;29.04;33.70;101995.13;12252648;19;19923;-88
2022/08/08 11:53:52;;;;;;;;;;;30.80;31.80;;;28.78;33.23;101932.69;12254023;19;19915;-88
2022/08/08 11:58:01;;;;;;;;;;;30.80;31.80;;;29.29;33.28;102006.59;12255079;19;20498;-87
2022/08/08 12:02:05;;;;;;;;;;;30.80;31.80;;;29.15;33.43;101963.47;12239871;19;19919;-87
2022/08/08 12:06:14;;;;;;;;;;;30.90;31.50;;;29.34;33.04;101988.06;12250621;19;19922;-88
2022/08/08 12:10:17;;;;;;;;;;;31.00;31.70;;;29.48;33.13;101997.22;12249233;19;20773;-88
2022/08/08 12:14:22;;;;;;;;;;;31.00;31.60;;;29.58;32.96;101993.47;12249689;19;20336;-87
2022/08/08 12:18:25;;;;;;;;;;;31.10;31.90;;;29.70;32.76;102003.66;12247210;19;20586;-88
2022/08/08 12:22:27;;;;;;;;;;;31.20;32.10;;;29.67;32.77;101987.03;12242431;19;20342;-87
2022/08/08 12:26:43;;;;;;;;;;;31.20;31.70;;;29.69;32.58;101995.78;12249542;19;19921;-88
2022/08/08 12:30:45;;;;;;;;;;;31.30;31.90;;;29.53;32.65;101957.16;12242920;19;20279;-88
2022/08/08 12:35:00;;;;;;;;;;;31.30;31.30;;;29.87;32.29;102001.69;12245464;19;19923;-88
2022/08/08 12:39:02;;;;;;;;;;;31.40;31.60;;;29.78;32.73;101990.13;12243864;19;19922;-88
2022/08/08 12:43:03;;;;;;;;;;;31.40;31.40;;;29.71;32.50;101993.75;12244028;19;20327;-88
2022/08/08 12:47:06;;;;;;;;;;;31.40;31.30;;;29.64;32.37;101973.94;12245808;19;20326;-88
2022/08/08 12:51:18;;;;;;;;;;;31.30;30.60;;;29.72;32.53;101988.16;12243679;19;19990;-88
2022/08/08 12:55:19;;;;;;;;;;;31.30;31.30;;;29.78;32.50;101970.44;12247668;19;19918;-88
2022/08/08 12:59:27;;;;;;;;;;;31.50;31.30;;;29.94;32.20;101983.78;12244844;19;19927;-88
2022/08/08 13:03:32;;;;;;;;;;;31.40;31.30;;;29.88;31.88;101951.34;12245684;19;19919;-88
2022/08/08 13:07:36;;;;;;;;;;;31.50;31.30;;;29.83;32.04;101922.25;12244080;19;20351;-88
2022/08/08 13:11:37;;;;;;;;;;;31.60;31.20;;;30.04;32.15;101972.75;12242462;19;19937;-87
2022/08/08 13:15:40;;;;;;;;;;;31.60;30.30;;;29.91;32.08;101972.53;12246052;19;19931;-88
2022/08/08 13:19:42;;;;;;;;;;;31.60;30.80;;;29.70;32.03;101944.41;12243591;19;19922;-88
2022/08/08 13:23:43;;;;;;;;;;;31.50;31.30;;;29.75;31.92;101947.41;12245396;19;19915;-88
2022/08/08 13:27:53;;;;;;;;;;;31.50;31.20;;;29.91;31.99;101961.75;12245433;19;19933;-87
2022/08/08 13:31:59;;;;;;;;;;;31.40;31.10;;;30.03;31.71;101963.00;12247866;19;19915;-87
2022/08/08 13:36:00;;;;;;;;;;;31.70;31.00;;;30.03;31.83;101954.94;12256660;19;19961;-88
2022/08/08 13:40:04;;;;;;;;;;;31.60;31.20;;;30.03;31.79;101954.06;12253783;19;19927;-88
2022/08/08 13:44:06;;;;;;;;;;;31.60;31.10;;;29.72;31.70;101899.31;12256495;19;19919;-87
2022/08/08 13:48:12;;;;;;;;;;;31.60;30.80;;;29.91;31.53;101926.75;12256568;19;19914;-88
2022/08/08 13:52:15;;;;;;;;;;;31.90;31.30;;;29.99;31.32;101940.13;12251077;19;19934;-88
2022/08/08 13:56:26;;;;;;;;;;;31.70;30.90;;;29.85;31.70;101903.25;12255540;19;19919;-88
2022/08/08 14:00:37;;;;;;;;;;;31.70;31.10;;;30.19;31.30;101964.69;12250456;19;19984;-88
2022/08/08 14:04:38;;;;;;;;;;;31.80;31.00;;;30.16;31.21;101968.59;12254593;19;19967;-88
2022/08/08 14:08:44;;;;;;;;;;;31.70;30.50;;;29.99;30.96;101949.03;12255020;19;19919;-88
2022/08/08 14:12:46;;;;;;;;;;;31.70;30.90;;;29.92;31.01;101947.25;12249921;19;19922;-88
2022/08/08 14:16:49;;;;;;;;;;;31.80;30.60;;;29.98;31.31;101963.53;12253136;19;19926;-89
2022/08/08 14:20:59;;;;;;;;;;;31.60;30.80;;;29.98;31.48;101954.63;12250492;19;19925;-88
2022/08/08 14:25:03;;;;;;;;;;;31.50;30.70;;;29.94;30.78;101942.53;12254049;19;19978;-88
2022/08/08 14:29:05;;;;;;;;;;;31.60;30.40;;;30.04;31.11;101953.06;12255817;19;19932;-88
2022/08/08 14:33:06;;;;;;;;;;;31.60;30.30;;;30.07;31.22;101958.06;12253721;19;20346;-89
2022/08/08 14:37:09;;;;;;;;;;;31.50;30.80;;;30.02;31.06;101938.94;12254775;19;20310;-90
2022/08/08 14:41:19;;;;;;;;;;;31.60;30.80;;;30.14;30.80;101950.94;12251797;19;19982;-88
2022/08/08 14:45:24;;;;;;;;;;;31.60;30.90;;;29.81;30.80;101905.44;12252861;19;19919;-88
2022/08/08 14:49:32;;;;;;;;;;;31.60;30.80;;;29.65;30.66;101886.75;12253608;19;19926;-88
2022/08/08 14:53:35;;;;;;;;;;;31.80;30.70;;;30.04;30.65;101956.59;12254308;19;20364;-89
2022/08/08 14:57:38;;;;;;;;;;;31.70;30.50;;;30.07;31.00;101955.38;12251892;19;19919;-89
2022/08/08 15:01:46;;;;;;;;;;;31.60;30.50;;;30.04;30.56;101944.97;12247003;19;20298;-89
2022/08/08 15:05:47;;;;;;;;;;;31.60;30.60;;;30.05;31.01;101952.03;12249621;19;20306;-88
2022/08/08 15:09:49;;;;;;;;;;;31.60;30.40;;;30.03;30.93;101957.63;12247257;19;20329;-88
2022/08/08 15:13:51;;;;;;;;;;;31.60;30.40;;;29.98;30.65;101941.16;12249305;19;20250;-88
2022/08/08 15:17:52;;;;;;;;;;;31.60;30.30;;;30.02;30.69;101938.94;12249309;19;19915;-88
2022/08/08 15:21:54;;;;;;;;;;;31.60;30.30;;;30.08;30.63;101948.97;12246942;19;19926;-88
2022/08/08 15:25:55;;;;;;;;;;;31.60;30.70;;;30.12;30.58;101936.81;12249993;19;20373;-88
2022/08/08 15:29:58;;;;;;;;;;;31.60;30.40;;;30.05;30.51;101917.00;12247922;19;19918;-88
2022/08/08 15:34:00;;;;;;;;;;;31.70;30.20;;;30.23;30.38;101936.38;12251023;19;19907;-88
2022/08/08 15:38:02;;;;;;;;;;;31.70;30.20;;;29.98;30.66;101888.13;12248867;19;19915;-88
2022/08/08 15:42:06;;;;;;;;;;;31.80;30.20;;;30.31;30.50;101933.59;12244569;19;19926;-88
2022/08/08 15:46:08;;;;;;;;;;;31.80;30.40;;;30.38;30.29;101931.84;12247903;19;19919;-88
2022/08/08 15:50:09;;;;;;;;;;;31.80;30.00;;;30.34;30.37;101925.13;12247728;19;19931;-88
2022/08/08 15:54:11;;;;;;;;;;;31.90;30.00;;;30.32;30.36;101921.78;12248535;19;19911;-88
2022/08/08 15:58:12;;;;;;;;;;;31.90;29.80;;;30.34;30.09;101925.13;12248264;19;19915;-87
2022/08/08 16:02:14;;;;;;;;;;;31.90;30.20;;;30.30;30.22;101928.38;12245067;19;19990;-88
2022/08/08 16:06:15;;;;;;;;;;;31.80;29.80;;;30.16;30.30;101919.25;12253044;19;19911;-88
2022/08/08 16:10:16;;;;;;;;;;;31.80;30.00;;;30.14;30.17;101937.47;12251250;19;19915;-88
2022/08/08 16:14:18;;;;;;;;;;;31.70;30.00;;;30.12;30.11;101939.50;12250887;19;19925;-88
2022/08/08 16:18:19;;;;;;;;;;;31.60;30.00;;;29.95;29.89;101928.06;12250259;19;20235;-88
2022/08/08 16:22:21;;;;;;;;;;;31.60;30.20;;;29.86;30.04;101935.38;12242387;19;19923;-88
2022/08/08 16:26:26;;;;;;;;;;;31.50;30.20;;;29.86;29.94;101951.53;12246817;19;19926;-88
2022/08/08 16:30:27;;;;;;;;;;;31.40;29.80;;;29.70;29.93;101946.28;12247805;19;19915;-88
2022/08/08 16:34:29;;;;;;;;;;;31.30;30.00;;;29.58;29.96;101945.03;12245810;19;19915;-88
2022/08/08 16:38:30;;;;;;;;;;;31.20;30.00;;;29.53;29.85;101935.63;12241400;19;19998;-89
2022/08/08 16:42:32;;;;;;;;;;;31.10;30.00;;;29.47;29.94;101944.41;12244853;19;19915;-88
2022/08/08 16:46:37;;;;;;;;;;;31.10;30.00;;;29.47;30.32;101941.72;12245340;19;22061;-88
2022/08/08 16:50:38;;;;;;;;;;;31.00;30.00;;;29.24;30.20;101916.66;12248505;19;19923;-88
2022/08/08 16:54:39;;;;;;;;;;;31.00;30.00;;;29.07;30.01;101900.63;12249723;19;19960;-87
2022/08/08 16:58:41;;;;;;;;;;;30.90;30.10;;;28.90;29.83;101881.03;12248568;19;19923;-89
2022/08/08 17:02:43;;;;;;;;;;;31.00;30.20;;;28.89;30.30;101889.28;12244707;19;19943;-87
2022/08/08 17:06:44;;;;;;;;;;;30.80;30.00;;;28.93;30.31;101903.22;12246245;19;19919;-88
2022/08/08 17:10:46;;;;;;;;;;;30.80;30.00;;;29.12;30.03;101945.84;12244875;19;19927;-88
2022/08/08 17:14:47;;;;;;;;;;;30.70;30.10;;;29.09;29.80;101941.66;12247247;19;19921;-88
2022/08/08 17:18:49;;;;;;;;;;;30.70;30.10;;;28.93;29.83;101920.19;12248952;19;19918;-88
2022/08/08 17:22:50;;;;;;;;;;;30.70;30.10;;;28.79;29.81;101905.66;12247818;19;19917;-88
2022/08/08 17:26:52;;;;;;;;;;;30.70;30.10;;;28.94;30.05;101926.41;12249674;19;20352;-88
2022/08/08 17:30:54;;;;;;;;;;;30.60;30.10;;;29.13;30.25;101962.81;12246764;19;19923;-88
2022/08/08 17:34:55;;;;;;;;;;;30.70;30.20;;;28.95;29.67;101934.31;12248686;19;20498;-88
2022/08/08 17:38:57;;;;;;;;;;;30.60;30.10;;;28.78;29.89;101924.63;12247879;19;19907;-88
2022/08/08 17:42:59;;;;;;;;;;;30.70;30.30;;;28.74;30.11;101923.31;12243632;19;19915;-88
2022/08/08 17:47:01;;;;;;;;;;;30.50;30.30;;;28.88;29.90;101958.38;12246857;19;19962;-88
2022/08/08 17:51:02;;;;;;;;;;;30.50;30.20;;;28.66;30.10;101941.16;12247889;19;19925;-87
2022/08/08 17:55:05;;;;;;;;;;;30.50;30.20;;;28.35;29.99;101905.28;12248632;19;19922;-88
2022/08/08 17:59:06;;;;;;;;;;;30.40;30.30;;;28.42;29.99;101935.84;12249007;19;19911;-89
2022/08/08 18:03:07;;;;;;;;;;;30.30;30.30;;;28.67;30.20;101991.22;12246404;19;19933;-87
2022/08/08 18:07:09;;;;;;;;;;;30.20;30.50;;;28.19;30.44;101925.84;12247210;19;19931;-88
2022/08/08 18:11:15;;;;;;;;;;;30.10;30.50;;;28.20;30.28;101940.94;12247625;19;20322;-88
2022/08/08 18:15:18;;;;;;;;;;;30.20;30.60;;;28.29;30.39;101959.72;12246590;19;20372;-87
2022/08/08 18:19:20;;;;;;;;;;;30.10;30.60;;;28.29;30.25;101968.63;12256089;19;19933;-87
2022/08/08 18:23:21;;;;;;;;;;;30.00;30.50;;;27.95;30.32;101925.84;12260017;19;19922;-89
2022/08/08 18:27:23;;;;;;;;;;;29.90;30.60;;;27.90;30.53;101937.13;12259886;19;19946;-87
2022/08/08 18:31:25;;;;;;;;;;;29.90;30.60;;;27.75;30.69;101939.59;12254648;19;19919;-88